createdAt,value
2019-02-26T00:01:50.479Z,35.20
2019-02-26T00:11:53.423Z,34.27
2019-02-26T00:21:58.520Z,33.57
2019-02-26T00:32:03.734Z,38.43
2019-02-26T00:42:08.971Z,40.43
2019-02-26T00:52:15.607Z,33.45
2019-02-26T01:02:20.663Z,41.13
2019-02-26T01:12:25.689Z,31.53
2019-02-26T01:22:31.104Z,30.30
2019-02-26T01:32:37.489Z,39.87
2019-02-26T01:42:47.206Z,29.63
2019-02-26T01:52:50.040Z,32.13
2019-02-26T02:02:56.147Z,36.27
2019-02-26T02:13:02.837Z,36.77
2019-02-26T02:23:07.705Z,35.97
2019-02-26T02:33:17.200Z,39.30
2019-02-26T02:43:21.372Z,38.90
2019-02-26T02:53:27.424Z,28.93
2019-02-26T03:03:32.473Z,36.77
2019-02-26T03:13:40.342Z,35.03
2019-02-26T03:23:45.675Z,42.00
2019-02-26T03:33:50.914Z,42.30
2019-02-26T03:43:58.267Z,36.53
2019-02-26T03:54:02.745Z,40.47
2019-02-26T04:04:07.796Z,40.50
2019-02-26T04:14:17.376Z,39.07
2019-02-26T04:24:19.550Z,35.58
2019-02-26T04:34:27.647Z,39.37
2019-02-26T04:44:47.706Z,41.57
2019-02-26T04:54:51.577Z,37.37
2019-02-26T05:04:56.641Z,39.17
2019-02-26T05:15:01.771Z,38.03
2019-02-26T05:25:13.767Z,36.00
2019-02-26T05:35:18.071Z,40.73
2019-02-26T05:45:23.836Z,43.13
2019-02-26T05:55:29.598Z,40.85
2019-02-26T06:05:34.634Z,49.40
2019-02-26T06:15:39.800Z,49.27
2019-02-26T06:25:44.972Z,39.70
2019-02-26T06:35:50.433Z,84.83
2019-02-26T06:45:55.595Z,39.47
2019-02-26T06:56:01.264Z,35.93
2019-02-26T07:06:06.150Z,31.47
2019-02-26T07:16:11.212Z,38.75
2019-02-26T07:26:18.313Z,37.88
2019-02-26T07:36:25.798Z,39.67
2019-02-26T07:46:30.855Z,37.33
2019-02-26T07:56:36.213Z,37.37
2019-02-26T08:06:41.651Z,39.70
2019-02-26T08:16:49.240Z,41.67
2019-02-26T08:26:53.973Z,41.43
2019-02-26T08:36:59.424Z,43.37
2019-02-26T08:47:08.801Z,36.95
2019-02-26T08:57:12.606Z,44.93
2019-02-26T09:07:19.531Z,42.40
2019-02-26T09:17:26.728Z,38.50
2019-02-26T09:27:32.111Z,37.00
2019-02-26T09:37:38.480Z,43.53
2019-02-26T09:47:44.919Z,45.47
2019-02-26T09:57:50.674Z,30.13
2019-02-26T10:07:57.989Z,29.30
2019-02-26T10:18:04.886Z,47.73
2019-02-26T10:28:11.583Z,38.63
2019-02-26T10:38:16.954Z,35.98
2019-02-26T10:48:25.105Z,30.43
2019-02-26T10:58:29.032Z,26.02
2019-02-26T11:08:35.067Z,25.70
2019-02-26T11:18:42.529Z,32.35
2019-02-26T11:28:47.915Z,30.40
2019-02-26T11:38:53.439Z,32.30
2019-02-26T11:48:58.637Z,26.73
2019-02-26T11:59:06.610Z,23.85
2019-02-26T12:09:13.692Z,26.87
2019-02-26T12:19:18.104Z,28.45
2019-02-26T12:29:24.046Z,20.27
2019-02-26T12:39:31.378Z,18.92
2019-02-26T12:49:39.149Z,23.35
2019-02-26T12:59:43.621Z,16.62
2019-02-26T13:09:51.961Z,22.80
2019-02-26T13:19:58.867Z,24.17
2019-02-26T13:30:03.268Z,18.77
2019-02-26T13:40:18.399Z,15.60
2019-02-26T13:50:34.724Z,20.27
2019-02-26T14:00:39.767Z,21.80
2019-02-26T14:10:44.853Z,16.33
2019-02-26T14:20:50.050Z,17.83
2019-02-26T14:30:55.157Z,45.30
2019-02-26T14:41:02.440Z,23.73
2019-02-26T14:51:07.444Z,30.77
2019-02-26T15:01:12.834Z,23.87
2019-02-26T15:11:17.999Z,19.90
2019-02-26T15:21:23.699Z,15.83
2019-02-26T15:31:29.230Z,13.70
2019-02-26T15:41:34.615Z,34.30
2019-02-26T15:51:39.819Z,36.90
2019-02-26T16:01:45.006Z,22.70
2019-02-26T16:11:50.392Z,19.10
2019-02-26T16:21:55.920Z,18.90
2019-02-26T16:32:02.654Z,38.60
2019-02-26T16:42:11.367Z,28.83
2019-02-26T16:52:15.632Z,42.83
2019-02-26T17:02:21.106Z,46.65
2019-02-26T17:12:26.965Z,117.07
2019-02-26T17:22:33.864Z,40.23
2019-02-26T17:32:39.545Z,39.67
2019-02-26T17:42:45.219Z,31.90
2019-02-26T17:52:50.867Z,47.67
2019-02-26T18:02:56.286Z,48.50
2019-02-26T18:13:01.511Z,29.27
2019-02-26T18:23:07.159Z,36.23
2019-02-26T18:33:12.914Z,48.20
2019-02-26T18:43:18.408Z,76.42
2019-02-26T18:53:24.150Z,69.77
2019-02-26T19:03:29.883Z,81.57
2019-02-26T19:13:36.256Z,77.27
2019-02-26T19:23:41.923Z,55.93
2019-02-26T19:33:47.632Z,84.17
2019-02-26T19:43:53.313Z,53.93
2019-02-26T19:53:58.963Z,57.43
2019-02-26T20:04:05.474Z,54.08
2019-02-26T20:14:12.304Z,57.98
2019-02-26T20:24:18.439Z,71.47
2019-02-26T20:34:24.033Z,85.40
2019-02-26T20:44:29.540Z,65.60
2019-02-26T20:54:35.218Z,52.90
2019-02-26T21:04:40.709Z,76.10
2019-02-26T21:14:46.099Z,84.50
2019-02-26T21:24:52.723Z,87.27
2019-02-26T21:34:58.238Z,40.47
2019-02-26T21:45:03.729Z,43.93
2019-02-26T21:55:10.669Z,42.27
2019-02-26T22:05:16.916Z,45.15
2019-02-26T22:15:22.217Z,56.33
2019-02-26T22:25:29.250Z,89.60
2019-02-26T22:35:35.051Z,72.53
2019-02-26T22:45:40.359Z,63.07
2019-02-26T22:55:49.586Z,46.50
2019-02-26T23:05:52.514Z,40.53
2019-02-26T23:15:57.616Z,48.33
2019-02-26T23:26:03.102Z,49.60
2019-02-26T23:36:09.411Z,38.53
2019-02-26T23:46:14.319Z,45.33
2019-02-26T23:56:19.890Z,56.20
